createdAt,value
2018-12-06T00:02:45.090Z,32.50
2018-12-06T00:08:08.405Z,35.80
2018-12-06T00:13:16.993Z,29.90
2018-12-06T00:18:30.739Z,32.03
2018-12-06T00:23:40.001Z,35.37
2018-12-06T00:29:36.634Z,33.53
2018-12-06T00:34:49.978Z,32.33
2018-12-06T00:40:01.216Z,34.30
2018-12-06T00:45:23.461Z,30.37
2018-12-06T00:50:37.226Z,36.40
2018-12-06T01:01:27.399Z,35.03
2018-12-06T01:06:34.213Z,36.33
2018-12-06T01:11:42.881Z,41.00
2018-12-06T01:16:50.474Z,37.67
2018-12-06T01:22:02.022Z,36.40
2018-12-06T01:32:38.622Z,45.83
2018-12-06T01:37:47.810Z,36.80
2018-12-06T01:48:36.851Z,41.57
2018-12-06T01:53:52.465Z,40.80
2018-12-06T02:10:04.163Z,39.67
2018-12-06T02:20:54.209Z,45.27
2018-12-06T02:25:57.734Z,45.13
2018-12-06T02:31:07.962Z,45.67
2018-12-06T02:41:49.447Z,41.83
2018-12-06T02:47:01.604Z,45.27
2018-12-06T02:52:11.206Z,46.90
2018-12-06T03:02:50.307Z,51.97
2018-12-06T03:08:01.178Z,42.23
2018-12-06T03:13:08.693Z,42.43
2018-12-06T03:18:24.345Z,37.40
2018-12-06T03:23:34.695Z,48.03
2018-12-06T03:28:41.612Z,41.57
2018-12-06T03:33:51.576Z,39.07
2018-12-06T03:38:58.589Z,38.10
2018-12-06T03:44:06.533Z,39.80
2018-12-06T03:49:15.985Z,39.50
2018-12-06T03:54:29.039Z,39.80
2018-12-06T04:10:37.991Z,44.90
2018-12-06T04:21:13.591Z,36.37
2018-12-06T04:26:27.173Z,36.27
2018-12-06T04:31:38.076Z,39.40
2018-12-06T04:36:49.266Z,32.60
2018-12-06T04:42:00.805Z,30.83
2018-12-06T04:47:20.204Z,34.63
2018-12-06T04:52:29.158Z,36.83
2018-12-06T04:57:36.368Z,30.93
2018-12-06T05:02:45.624Z,33.57
2018-12-06T05:18:55.247Z,31.27
2018-12-06T05:24:16.515Z,33.03
2018-12-06T05:45:06.898Z,40.40
2018-12-06T05:50:16.466Z,37.87
2018-12-06T05:55:26.201Z,36.03
2018-12-06T06:00:36.682Z,36.63
2018-12-06T06:05:46.382Z,31.30
2018-12-06T06:10:59.385Z,30.57
2018-12-06T06:16:24.793Z,32.57
2018-12-06T06:27:12.815Z,30.10
2018-12-06T06:43:22.143Z,44.20
2018-12-06T06:48:32.906Z,40.83
2018-12-06T06:53:52.177Z,34.77
2018-12-06T07:10:20.441Z,34.57
2018-12-06T07:15:30.549Z,43.70
2018-12-06T07:20:43.634Z,57.77
2018-12-06T07:25:50.699Z,53.23
2018-12-06T07:30:57.295Z,37.67
2018-12-06T07:36:04.014Z,37.67
2018-12-06T07:41:19.445Z,26.63
2018-12-06T07:51:39.309Z,31.87
2018-12-06T07:56:52.697Z,37.40
2018-12-06T08:02:08.757Z,39.30
2018-12-06T08:07:24.811Z,36.97
2018-12-06T08:12:34.282Z,36.00
2018-12-06T08:17:41.252Z,34.80
2018-12-06T08:22:46.485Z,35.17
2018-12-06T08:27:59.497Z,36.17
2018-12-06T08:33:12.951Z,39.33
2018-12-06T08:44:00.078Z,40.27
2018-12-06T08:49:09.236Z,43.47
2018-12-06T08:54:16.360Z,40.03
2018-12-06T08:59:28.951Z,37.50
2018-12-06T09:04:40.455Z,41.80
2018-12-06T09:09:59.779Z,46.13
2018-12-06T09:15:15.351Z,38.17
2018-12-06T09:20:29.145Z,35.40
2018-12-06T09:25:33.989Z,41.03
2018-12-06T09:30:41.397Z,53.37
2018-12-06T09:35:50.929Z,45.60
2018-12-06T09:40:57.910Z,38.77
2018-12-06T09:46:04.563Z,47.63
2018-12-06T09:51:18.228Z,32.50
2018-12-06T09:56:25.350Z,32.77
2018-12-06T10:01:34.241Z,43.73
2018-12-06T10:06:45.596Z,33.37
2018-12-06T10:11:59.571Z,37.60
2018-12-06T10:22:38.980Z,38.33
2018-12-06T10:27:45.807Z,31.17
2018-12-06T10:33:07.121Z,30.23
2018-12-06T10:38:15.030Z,27.73
2018-12-06T10:43:26.264Z,24.77
2018-12-06T10:48:51.878Z,20.67
2018-12-06T10:53:59.569Z,18.13
2018-12-06T10:59:07.065Z,11.37
2018-12-06T11:09:53.607Z,10.00
2018-12-06T11:26:02.550Z,9.50
2018-12-06T11:31:19.497Z,8.97
2018-12-06T11:36:32.478Z,8.23
2018-12-06T11:41:43.381Z,8.53
2018-12-06T11:46:52.453Z,8.70
2018-12-06T11:52:02.021Z,7.70
2018-12-06T11:57:16.302Z,7.07
2018-12-06T12:07:28.789Z,9.03
2018-12-06T12:12:37.663Z,9.50
2018-12-06T12:17:43.272Z,13.97
2018-12-06T12:22:53.095Z,6.87
2018-12-06T12:28:00.464Z,7.83
2018-12-06T12:33:10.732Z,5.20
2018-12-06T12:38:21.794Z,10.10
2018-12-06T12:43:35.158Z,6.57
2018-12-06T12:48:42.470Z,5.47
2018-12-06T12:53:52.573Z,8.63
2018-12-06T12:59:05.890Z,7.10
2018-12-06T13:04:23.357Z,4.37
2018-12-06T13:09:36.484Z,7.57
2018-12-06T13:14:43.287Z,5.57
2018-12-06T13:19:51.028Z,7.40
2018-12-06T13:24:56.766Z,5.30
2018-12-06T13:30:10.571Z,7.80
2018-12-06T13:35:19.610Z,8.13
2018-12-06T13:40:39.311Z,5.73
2018-12-06T13:45:46.025Z,5.77
2018-12-06T13:50:57.588Z,5.20
2018-12-06T14:07:16.328Z,10.10
2018-12-06T14:12:23.477Z,5.47
2018-12-06T14:23:03.758Z,4.13
2018-12-06T14:28:18.801Z,5.10
2018-12-06T14:33:25.970Z,5.73
2018-12-06T14:38:40.042Z,6.80
2018-12-06T14:43:48.358Z,4.43
2018-12-06T14:48:55.818Z,6.90
2018-12-06T14:54:06.143Z,6.40
2018-12-06T14:59:19.912Z,6.13
2018-12-06T15:04:38.774Z,10.23
2018-12-06T15:09:42.622Z,8.47
2018-12-06T15:15:04.113Z,10.93
2018-12-06T15:25:53.737Z,7.87
2018-12-06T15:31:01.371Z,9.30
2018-12-06T15:41:43.181Z,7.30
2018-12-06T15:46:53.672Z,5.80
2018-12-06T15:52:16.633Z,8.83
2018-12-06T15:57:37.892Z,6.50
2018-12-06T16:02:47.749Z,6.13
2018-12-06T16:18:56.849Z,8.30
2018-12-06T16:24:10.082Z,7.03
2018-12-06T16:40:17.792Z,8.90
2018-12-06T16:45:24.854Z,10.17
2018-12-06T16:50:47.541Z,8.13
2018-12-06T17:01:27.229Z,9.80
2018-12-06T17:23:07.971Z,7.93
2018-12-06T17:28:15.936Z,8.97
2018-12-06T17:33:26.393Z,8.87
2018-12-06T17:38:29.897Z,42.90
2018-12-06T17:43:45.317Z,8.80
2018-12-06T17:48:59.208Z,5.73
2018-12-06T17:54:06.235Z,8.90
2018-12-06T17:59:13.395Z,8.73
2018-12-06T18:04:25.110Z,6.70
2018-12-06T18:09:31.765Z,7.87
2018-12-06T18:14:41.434Z,8.57
2018-12-06T18:25:19.928Z,8.53
2018-12-06T18:30:33.376Z,9.07
2018-12-06T18:35:40.330Z,12.13
2018-12-06T18:40:47.723Z,9.37
2018-12-06T18:45:54.745Z,8.20
2018-12-06T18:51:08.340Z,28.83
2018-12-06T18:56:20.741Z,9.00
2018-12-06T19:18:06.677Z,7.57
2018-12-06T19:23:23.614Z,6.70
2018-12-06T19:28:29.053Z,5.10
2018-12-06T19:33:44.613Z,11.20
2018-12-06T19:44:22.002Z,28.27
2018-12-06T19:55:05.118Z,164.83
2018-12-06T20:00:32.338Z,15.17
2018-12-06T20:05:41.910Z,4.67
2018-12-06T20:32:14.859Z,4.00
2018-12-06T20:37:22.965Z,3.93
2018-12-06T20:42:30.394Z,4.10
2018-12-06T20:47:37.569Z,5.97
2018-12-06T20:52:50.028Z,6.73
2018-12-06T21:08:55.529Z,4.87
2018-12-06T21:14:06.767Z,4.27
2018-12-06T21:19:13.669Z,5.67
2018-12-06T21:24:20.743Z,5.27
2018-12-06T21:34:36.365Z,4.47
2018-12-06T21:39:46.426Z,2.80
2018-12-06T21:44:53.717Z,3.50
2018-12-06T21:50:08.472Z,2.40
2018-12-06T21:55:17.918Z,2.60
2018-12-06T22:06:05.675Z,3.67
2018-12-06T22:11:12.406Z,2.40
2018-12-06T22:16:19.034Z,2.50
2018-12-06T22:21:34.634Z,8.43
2018-12-06T22:26:42.432Z,3.17
2018-12-06T22:37:28.253Z,1.93
2018-12-06T22:42:42.151Z,1.90
2018-12-06T22:47:59.955Z,1.70
2018-12-06T22:58:39.381Z,1.93
2018-12-06T23:03:44.636Z,1.70
2018-12-06T23:08:59.915Z,2.20
2018-12-06T23:14:15.397Z,2.40
2018-12-06T23:24:55.818Z,1.80
2018-12-06T23:30:19.244Z,1.73
2018-12-06T23:46:26.550Z,2.17
2018-12-06T23:51:42.555Z,4.43
